Language selection

Features

My Weather Profile Weather Topics  | 

Atlantic - Newfoundland: Past 24 Hour Conditions

 

St. Anthony Airport

10:30 AM NST 18 January 2020
Disclaimer

This table is a summary of hourly weather conditions for the past 24 hours.
Please note that these observations might not always be representative of weather conditions over their associated marine area.

Date / Time
(NST)
Wind(knots) Conditions Visibility(km) Pressure(kPa) Air tempC) Relative humidity(%) Dew pointC) Wind Chill
18 January 2020
10:30 WNW 20 gust 33 Sunny 16 100.4 -16 75 -19 -28
9:30 WNW 18 gust 24 Mainly Sunny 16 100.3 -17 76 -20 -28
8:30 WNW 21 gust 27 Cloudy 16 100.3 -17 77 -20 -30
7:30 WNW 18 gust 25 Mostly Cloudy 16 100.2 -17 81 -20 -29
6:30 WNW 25 gust 35 Partly Cloudy 16 100.1 -17 79 -20 -31
5:30 NW 28 gust 37 Mainly Clear 16 100.1 -17 69 -21 -31
4:30 NNW 27 gust 34 Mostly Cloudy 16 100.0 -16 68 -20 -30
3:30 NW 30 gust 42 Mostly Cloudy 16 100.0 -15 64 -20 -29
2:30 NNW 36 gust 49 Partly Cloudy 11 100.0 -14 76 -17 -28
1:30 NNW 35 gust 51 Light Snow 5 100.0 -13 77 -16 -27
0:30 NNW 39 gust 50 Drifting Snow 2 99.9 -13 79 -16 -27
17 January 2020
23:30 NNW 39 gust 51 Drifting Snow 2 100.0 -12 79 -15 -26
22:30 NNW 42 gust 54 Drifting Snow 1 99.9 -12 79 -15 -27
21:30 NNW 30 gust 49 Drifting Snow 2 100.1 -13 80 -16 -26
20:30 NNW 31 gust 41 Drifting Snow 2 100.3 -15 81 -17 -29
19:30 NNW 31 gust 38 Drifting Snow 2 100.4 -14 78 -17 -28
18:30 NNW 36 gust 42 Drifting Snow 2 100.4 -13 72 -17 -28
17:30 N 29 gust 35 Haze 8 100.6 -15 66 -20 -29
16:30 N 25 gust 31 Cloudy 16 100.6 -16 61 -22 -29
15:30 N 27 gust 33 Haze 5 100.6 -17 61 -23 -31
14:30 N 25 gust 35 Haze 10 100.7 -18 62 -23 -32
13:30 N 22 gust 32 Haze 6 101.0 -18 62 -24 -31
12:30 N 21 gust 28 Haze 5 101.1 -18 74 -21 -31
11:30 N 18 gust 23 Sunny 16 101.2 -18 62 -24 -30
10:30 NNW 16 Mainly Sunny 16 101.2 -19 70 -23 -31

Zoom-in to make a selection

Map of Atlantic - Newfoundland marine weather areas Banquereau - 44139 Blanc-Sablon Airport Cap Whittle Chevery Natashquan Airport Heath Point Îles de la Madeleine Airport Miscou Island Eskasoni (First Nations) Grand Étang Ingonish Beach North Mountain St.Paul Island J.A. Douglas McCurdy Sydney Airport Charlottetown Airport East Point North Cape Argentia Bonavista Burgeo Cape Race Corner Brook Daniel's Harbour Englee Ferolle Point La Scie Port aux Basques Rocky Harbour Sagona Island St. Anthony Airport St. John's Int'l Airport St. Lawrence Stephenville Airport Twillingate Winterland Branch Hill Wreckhouse Grates Cove Pool's Island Marticot Island Long Pond Cartwright Airport Mary's Harbour
Legend:
buoy Buoy
land station Land Station

Atlantic - Newfoundland Area

Another Region

What we are doing

Date modified: